createdAt,value
2023-04-03T00:02:00.312Z,2.13
2023-04-03T00:04:33.056Z,2.10
2023-04-03T00:07:06.019Z,1.70
2023-04-03T00:09:38.597Z,1.50
2023-04-03T00:12:12.348Z,1.67
2023-04-03T00:14:45.010Z,1.70
2023-04-03T00:17:17.976Z,1.95
2023-04-03T00:19:50.645Z,1.77
2023-04-03T00:22:23.783Z,1.80
2023-04-03T00:24:56.643Z,1.33
2023-04-03T00:27:29.676Z,1.40
2023-04-03T00:30:02.229Z,1.77
2023-04-03T00:32:35.591Z,2.03
2023-04-03T00:35:08.674Z,1.65
2023-04-03T00:37:41.754Z,1.70
2023-04-03T00:40:15.604Z,2.20
2023-04-03T00:42:49.865Z,1.42
2023-04-03T00:45:28.536Z,1.60
2023-04-03T00:48:02.621Z,2.17
2023-04-03T00:50:37.242Z,2.03
2023-04-03T00:53:13.032Z,1.25
2023-04-03T00:55:45.810Z,1.70
2023-04-03T00:58:21.243Z,1.63
2023-04-03T01:00:59.322Z,2.15
2023-04-03T01:03:33.000Z,1.83
2023-04-03T01:06:08.465Z,1.58
2023-04-03T01:08:41.461Z,1.70
2023-04-03T01:11:14.097Z,1.95
2023-04-03T01:13:47.330Z,1.90
2023-04-03T01:16:20.471Z,2.03
2023-04-03T01:18:53.703Z,1.65
2023-04-03T01:21:26.375Z,1.00
2023-04-03T01:24:18.254Z,1.75
2023-04-03T01:26:51.884Z,1.75
2023-04-03T01:29:24.871Z,1.80
2023-04-03T01:31:58.889Z,2.00
2023-04-03T01:34:32.527Z,1.63
2023-04-03T01:37:06.530Z,1.77
2023-04-03T01:39:39.505Z,1.67
2023-04-03T01:42:12.930Z,1.13
2023-04-03T01:44:49.535Z,2.28
2023-04-03T01:47:22.953Z,2.45
2023-04-03T01:49:56.994Z,2.03
2023-04-03T01:52:29.761Z,1.73
2023-04-03T01:55:05.034Z,1.85
2023-04-03T01:57:41.138Z,1.65
2023-04-03T02:00:14.909Z,1.75
2023-04-03T02:02:48.007Z,1.45
2023-04-03T02:05:20.987Z,1.67
2023-04-03T02:07:53.711Z,2.53
2023-04-03T02:10:26.990Z,2.00
2023-04-03T02:13:03.465Z,1.40
2023-04-03T02:15:39.649Z,1.88
2023-04-03T02:18:12.838Z,1.80
2023-04-03T02:20:45.992Z,1.67
2023-04-03T02:23:18.672Z,2.17
2023-04-03T02:25:51.781Z,1.92
2023-04-03T02:28:24.399Z,2.15
2023-04-03T02:30:57.435Z,1.70
2023-04-03T02:33:34.409Z,1.95
2023-04-03T02:36:08.579Z,2.45
2023-04-03T02:38:41.878Z,1.52
2023-04-03T02:41:16.650Z,1.73
2023-04-03T02:43:49.425Z,1.65
2023-04-03T02:46:23.224Z,2.00
2023-04-03T02:48:55.904Z,1.88
2023-04-03T02:51:30.553Z,1.55
2023-04-03T02:54:07.277Z,1.70
2023-04-03T02:56:42.718Z,2.05
2023-04-03T02:59:15.845Z,1.67
2023-04-03T03:01:49.913Z,1.70
2023-04-03T03:04:22.986Z,1.83
2023-04-03T03:06:56.403Z,1.30
2023-04-03T03:09:29.890Z,1.63
2023-04-03T03:12:02.998Z,2.03
2023-04-03T03:14:36.097Z,1.75
2023-04-03T03:17:09.076Z,1.42
2023-04-03T03:19:41.775Z,1.50
2023-04-03T03:22:15.178Z,2.03
2023-04-03T03:24:47.807Z,1.58
2023-04-03T03:27:21.366Z,2.30
2023-04-03T03:29:54.169Z,1.65
2023-04-03T03:32:27.709Z,2.95
2023-04-03T03:35:01.925Z,1.80
2023-04-03T03:37:34.997Z,2.85
2023-04-03T03:40:07.992Z,1.60
2023-04-03T03:42:41.588Z,1.45
2023-04-03T03:45:14.182Z,1.40
2023-04-03T03:47:48.349Z,1.70
2023-04-03T03:50:21.897Z,1.42
2023-04-03T03:52:56.184Z,1.63
2023-04-03T03:55:28.880Z,1.80
2023-04-03T03:58:04.929Z,1.70
2023-04-03T04:00:39.618Z,2.05
2023-04-03T04:03:12.907Z,1.98
2023-04-03T04:05:46.511Z,1.75
2023-04-03T04:08:20.317Z,2.13
2023-04-03T04:10:53.605Z,2.10
2023-04-03T04:13:26.881Z,2.13
2023-04-03T04:15:59.907Z,1.20
2023-04-03T04:18:33.053Z,2.22
2023-04-03T04:21:06.123Z,2.28
2023-04-03T04:23:39.729Z,1.80
2023-04-03T04:26:12.610Z,2.30
2023-04-03T04:28:46.774Z,2.28
2023-04-03T04:31:19.624Z,1.70
2023-04-03T04:33:53.154Z,1.75
2023-04-03T04:36:26.588Z,2.33
2023-04-03T04:38:59.977Z,2.15
2023-04-03T04:41:34.250Z,2.13
2023-04-03T04:44:09.812Z,2.25
2023-04-03T04:46:43.205Z,1.92
2023-04-03T04:49:16.462Z,2.20
2023-04-03T04:51:52.263Z,1.92
2023-04-03T04:54:31.477Z,1.40
2023-04-03T04:57:04.750Z,2.60
2023-04-03T04:59:38.019Z,2.10
2023-04-03T05:02:13.044Z,2.30
2023-04-03T05:04:51.636Z,2.60
2023-04-03T05:07:28.404Z,2.53
2023-04-03T05:10:03.963Z,1.88
2023-04-03T05:12:38.034Z,3.15
2023-04-03T05:15:11.878Z,2.28
2023-04-03T05:17:44.967Z,2.22
2023-04-03T05:20:20.468Z,1.83
2023-04-03T05:22:54.345Z,1.95
2023-04-03T05:25:27.452Z,2.53
2023-04-03T05:28:01.823Z,2.28
2023-04-03T05:30:34.895Z,2.28
2023-04-03T05:33:09.816Z,2.20
2023-04-03T05:35:49.706Z,2.00
2023-04-03T05:38:27.294Z,2.08
2023-04-03T05:41:01.805Z,2.88
2023-04-03T05:43:36.011Z,2.40
2023-04-03T05:46:19.632Z,2.08
2023-04-03T05:48:57.208Z,2.65
2023-04-03T05:51:36.794Z,1.70
2023-04-03T05:54:24.821Z,1.77
2023-04-03T05:57:01.986Z,3.05
2023-04-03T05:59:35.318Z,2.00
2023-04-03T06:02:24.718Z,1.75
2023-04-03T06:04:58.198Z,1.77
2023-04-03T06:07:31.844Z,1.60
2023-04-03T06:10:04.918Z,2.25
2023-04-03T06:12:38.172Z,2.17
2023-04-03T06:15:11.692Z,1.88
2023-04-03T06:17:47.283Z,2.50
2023-04-03T06:20:20.001Z,1.50
2023-04-03T06:22:53.054Z,1.75
2023-04-03T06:25:25.883Z,2.08
2023-04-03T06:27:59.141Z,2.22
2023-04-03T06:30:32.998Z,1.85
2023-04-03T06:33:10.299Z,2.10
2023-04-03T06:35:43.045Z,2.80
2023-04-03T06:38:16.229Z,1.45
2023-04-03T06:40:49.645Z,2.95
2023-04-03T06:43:24.389Z,2.35
2023-04-03T06:45:57.256Z,2.50
2023-04-03T06:48:30.830Z,2.53
2023-04-03T06:51:04.336Z,2.25
2023-04-03T06:53:37.413Z,2.33
2023-04-03T06:56:10.138Z,3.33
2023-04-03T06:58:46.441Z,2.60
2023-04-03T07:01:26.431Z,2.50
2023-04-03T07:03:59.631Z,3.33
2023-04-03T07:06:33.765Z,2.45
2023-04-03T07:09:09.109Z,3.40
2023-04-03T07:11:42.177Z,2.00
2023-04-03T07:14:15.242Z,2.20
2023-04-03T07:16:48.186Z,3.50
2023-04-03T07:19:21.438Z,1.83
2023-04-03T07:21:54.055Z,2.60
2023-04-03T07:24:27.633Z,3.35
2023-04-03T07:27:00.244Z,2.20
2023-04-03T07:29:33.286Z,2.60
2023-04-03T07:32:07.052Z,2.65
2023-04-03T07:34:40.199Z,2.40
2023-04-03T07:37:14.423Z,2.55
2023-04-03T07:39:50.788Z,2.45
2023-04-03T07:42:23.510Z,2.22
2023-04-03T07:44:56.926Z,2.63
2023-04-03T07:47:29.647Z,1.70
2023-04-03T07:50:02.663Z,2.40
2023-04-03T07:52:35.312Z,3.08
2023-04-03T07:55:09.069Z,1.88
2023-04-03T07:57:43.471Z,2.75
2023-04-03T08:00:21.538Z,2.42
2023-04-03T08:02:54.474Z,2.05
2023-04-03T08:05:27.765Z,2.38
2023-04-03T08:08:00.521Z,1.90
2023-04-03T08:10:33.518Z,2.35
2023-04-03T08:13:06.556Z,1.58
2023-04-03T08:15:39.792Z,2.10
2023-04-03T08:18:12.645Z,2.00
2023-04-03T08:20:46.312Z,2.13
2023-04-03T08:23:20.296Z,2.33
2023-04-03T08:25:53.335Z,0.85
2023-04-03T08:28:26.001Z,1.70
2023-04-03T08:31:03.790Z,2.75
2023-04-03T08:33:37.805Z,1.67
2023-04-03T08:36:25.069Z,1.63
2023-04-03T08:38:58.078Z,2.45
2023-04-03T08:41:35.411Z,2.38
2023-04-03T08:44:11.056Z,1.60
2023-04-03T08:47:04.175Z,1.92
2023-04-03T08:49:52.808Z,1.88
2023-04-03T08:52:36.024Z,1.27
2023-04-03T08:55:15.026Z,2.13
2023-04-03T08:57:50.384Z,1.08
2023-04-03T09:00:24.667Z,1.15
2023-04-03T09:02:58.435Z,1.50
2023-04-03T09:05:34.208Z,1.27
2023-04-03T09:08:20.197Z,1.23
2023-04-03T09:11:12.751Z,2.03
2023-04-03T09:13:51.750Z,1.05
2023-04-03T09:16:24.324Z,1.15
2023-04-03T09:19:17.916Z,2.05
2023-04-03T09:21:50.986Z,1.10
2023-04-03T09:24:25.248Z,1.42
2023-04-03T09:27:01.221Z,0.98
2023-04-03T09:29:35.260Z,1.35
2023-04-03T09:32:33.989Z,1.10
2023-04-03T09:35:32.927Z,1.15
2023-04-03T09:38:19.140Z,1.65
2023-04-03T09:41:12.567Z,1.20
2023-04-03T09:43:53.827Z,1.65
2023-04-03T09:46:30.548Z,1.05
2023-04-03T09:49:09.457Z,0.93
2023-04-03T09:51:43.108Z,1.33
2023-04-03T09:54:34.372Z,1.48
2023-04-03T09:57:09.373Z,1.27
2023-04-03T09:59:47.797Z,0.80
2023-04-03T10:02:34.226Z,0.88
2023-04-03T10:05:26.891Z,1.00
2023-04-03T10:08:15.316Z,0.80
2023-04-03T10:10:49.982Z,1.35
2023-04-03T10:13:23.112Z,1.13
2023-04-03T10:16:03.065Z,1.15
2023-04-03T10:18:53.826Z,0.80
2023-04-03T10:21:36.053Z,0.93
2023-04-03T10:24:32.328Z,1.42
2023-04-03T10:27:05.563Z,1.17
2023-04-03T10:29:44.335Z,0.93
2023-04-03T10:32:22.901Z,1.52
2023-04-03T10:35:05.356Z,0.98
2023-04-03T10:37:53.310Z,1.48
2023-04-03T10:40:34.839Z,1.48
2023-04-03T10:43:16.912Z,1.50
2023-04-03T10:46:03.341Z,1.05
2023-04-03T10:48:42.083Z,1.25
2023-04-03T10:51:38.020Z,1.35
2023-04-03T10:54:27.868Z,1.30
2023-04-03T10:57:13.175Z,0.90
2023-04-03T10:59:48.656Z,1.02
2023-04-03T11:02:26.002Z,1.05
2023-04-03T11:05:06.520Z,1.48
2023-04-03T11:07:41.056Z,1.08
2023-04-03T11:10:22.584Z,1.10
2023-04-03T11:13:03.301Z,1.00
2023-04-03T11:15:36.568Z,1.60
2023-04-03T11:18:15.393Z,1.52
2023-04-03T11:21:11.038Z,1.92
2023-04-03T11:23:49.854Z,1.17
2023-04-03T11:26:25.530Z,1.30
2023-04-03T11:29:02.141Z,1.08
2023-04-03T11:31:57.949Z,0.65
2023-04-03T11:34:31.033Z,1.90
2023-04-03T11:37:06.042Z,0.75
2023-04-03T11:39:40.008Z,1.05
2023-04-03T11:42:39.157Z,0.85
2023-04-03T11:45:17.959Z,1.02
2023-04-03T11:47:52.172Z,1.27
2023-04-03T11:50:34.053Z,1.33
2023-04-03T11:53:14.299Z,0.85
2023-04-03T11:55:58.149Z,1.17
2023-04-03T11:58:39.373Z,1.23
2023-04-03T12:01:43.141Z,1.13
2023-04-03T12:04:23.075Z,1.88
2023-04-03T12:07:05.727Z,0.88
2023-04-03T12:09:41.127Z,1.52
2023-04-03T12:12:35.611Z,2.13
2023-04-03T12:15:20.145Z,0.80
2023-04-03T12:17:53.295Z,1.23
2023-04-03T12:20:45.308Z,1.25
2023-04-03T12:23:25.691Z,1.20
2023-04-03T12:26:17.057Z,0.75
2023-04-03T12:28:51.161Z,1.60
2023-04-03T12:31:25.469Z,1.13
2023-04-03T12:33:59.428Z,1.42
2023-04-03T12:36:40.081Z,0.80
2023-04-03T12:39:13.968Z,1.80
2023-04-03T12:42:13.768Z,1.40
2023-04-03T12:45:22.165Z,1.90
2023-04-03T12:47:55.902Z,1.10
2023-04-03T12:50:31.498Z,1.00
2023-04-03T12:53:08.610Z,1.05
2023-04-03T12:55:41.910Z,1.30
2023-04-03T12:58:16.569Z,1.42
2023-04-03T13:01:00.332Z,1.60
2023-04-03T13:03:33.235Z,0.95
2023-04-03T13:06:07.093Z,1.40
2023-04-03T13:08:49.468Z,1.23
2023-04-03T13:11:23.317Z,1.30
2023-04-03T13:14:04.779Z,1.70
2023-04-03T13:19:17.869Z,1.10
2023-04-03T13:21:53.749Z,1.60
2023-04-03T13:24:26.673Z,2.50
2023-04-03T13:26:59.819Z,1.13
2023-04-03T13:29:34.715Z,1.35
2023-04-03T13:32:08.098Z,1.40
2023-04-03T13:34:43.386Z,1.30
2023-04-03T13:37:26.721Z,1.10
2023-04-03T13:42:46.178Z,1.42
2023-04-03T13:45:27.644Z,1.25
2023-04-03T13:48:20.283Z,1.10
2023-04-03T13:50:56.179Z,1.15
2023-04-03T13:53:30.440Z,1.30
2023-04-03T13:56:05.878Z,1.40
2023-04-03T13:58:40.327Z,2.70
2023-04-03T14:01:19.956Z,1.73
2023-04-03T14:03:53.067Z,1.67
2023-04-03T14:06:25.902Z,1.92
2023-04-03T14:08:58.928Z,1.50
2023-04-03T14:11:32.256Z,1.52
2023-04-03T14:14:14.414Z,2.03
2023-04-03T14:16:48.687Z,1.80
2023-04-03T14:19:24.733Z,2.13
2023-04-03T14:21:58.195Z,1.83
2023-04-03T14:24:31.286Z,2.25
2023-04-03T14:27:04.152Z,1.58
2023-04-03T14:29:37.470Z,3.03
2023-04-03T14:32:14.953Z,2.53
2023-04-03T14:34:48.456Z,1.95
2023-04-03T14:37:22.674Z,2.10
2023-04-03T14:39:56.334Z,1.92
2023-04-03T14:42:32.885Z,1.35
2023-04-03T14:45:07.757Z,1.88
2023-04-03T14:47:49.080Z,1.13
2023-04-03T14:50:23.645Z,1.73
2023-04-03T14:52:58.309Z,1.10
2023-04-03T14:55:32.174Z,1.52
2023-04-03T14:58:04.788Z,2.00
2023-04-03T15:00:38.168Z,3.05
2023-04-03T15:03:16.675Z,1.75
2023-04-03T15:05:50.295Z,1.23
2023-04-03T15:08:27.330Z,2.60
2023-04-03T15:11:00.410Z,1.25
2023-04-03T15:13:33.013Z,2.20
2023-04-03T15:16:06.855Z,2.15
2023-04-03T15:18:39.691Z,2.03
2023-04-03T15:21:13.321Z,5.18
2023-04-03T15:23:46.108Z,1.75
2023-04-03T15:26:19.148Z,1.70
2023-04-03T15:28:51.864Z,1.30
2023-04-03T15:31:24.885Z,1.80
2023-04-03T15:33:57.630Z,1.52
2023-04-03T15:36:34.582Z,2.25
2023-04-03T15:39:07.697Z,1.95
2023-04-03T15:41:41.466Z,1.88
2023-04-03T15:44:14.430Z,1.80
2023-04-03T15:46:48.325Z,1.90
2023-04-03T15:49:22.281Z,2.03
2023-04-03T15:51:55.947Z,2.40
2023-04-03T15:54:30.817Z,1.48
2023-04-03T15:57:04.053Z,1.70
2023-04-03T15:59:36.729Z,1.98
2023-04-03T16:02:12.164Z,3.28
2023-04-03T16:04:44.896Z,3.83
2023-04-03T16:07:17.882Z,2.17
2023-04-03T16:09:50.710Z,3.13
2023-04-03T16:12:23.776Z,1.58
2023-04-03T16:14:56.491Z,1.77
2023-04-03T16:17:29.710Z,2.35
2023-04-03T16:20:02.484Z,2.15
2023-04-03T16:22:35.668Z,2.53
2023-04-03T16:25:08.812Z,2.28
2023-04-03T16:27:41.926Z,2.15
2023-04-03T16:30:15.138Z,2.47
2023-04-03T16:32:48.409Z,1.67
2023-04-03T16:35:21.175Z,2.42
2023-04-03T16:37:54.123Z,2.72
2023-04-03T16:40:26.869Z,2.03
2023-04-03T16:42:59.953Z,2.55
2023-04-03T16:45:32.607Z,2.25
2023-04-03T16:48:05.992Z,2.28
2023-04-03T16:50:38.769Z,3.00
2023-04-03T16:53:11.876Z,1.55
2023-04-03T16:55:44.472Z,2.08
2023-04-03T16:58:17.585Z,1.65
2023-04-03T17:00:50.265Z,2.72
2023-04-03T17:03:24.950Z,3.20
2023-04-03T17:05:58.142Z,3.63
2023-04-03T17:08:31.307Z,2.67
2023-04-03T17:11:03.951Z,4.05
2023-04-03T17:13:37.458Z,4.63
2023-04-03T17:16:11.572Z,5.10
2023-04-03T17:18:44.923Z,3.03
2023-04-03T17:21:18.253Z,2.85
2023-04-03T17:23:54.052Z,2.53
2023-04-03T17:26:27.633Z,2.72
2023-04-03T17:29:00.820Z,4.22
2023-04-03T17:31:33.773Z,4.25
2023-04-03T17:34:07.071Z,3.97
2023-04-03T17:36:39.719Z,3.10
2023-04-03T17:39:12.872Z,3.90
2023-04-03T17:41:46.443Z,4.22
2023-04-03T17:44:19.763Z,4.53
2023-04-03T17:46:52.348Z,3.67
2023-04-03T17:49:28.241Z,2.20
2023-04-03T17:52:01.071Z,2.15
2023-04-03T17:54:34.085Z,2.30
2023-04-03T17:57:07.214Z,3.10
2023-04-03T17:59:40.321Z,3.20
2023-04-03T18:02:13.053Z,1.90
2023-04-03T18:04:46.532Z,2.20
2023-04-03T18:07:19.552Z,2.58
2023-04-03T18:09:53.048Z,2.35
2023-04-03T18:12:26.697Z,2.25
2023-04-03T18:15:00.611Z,1.88
2023-04-03T18:17:33.577Z,2.13
2023-04-03T18:20:06.840Z,2.10
2023-04-03T18:22:39.615Z,4.13
2023-04-03T18:25:14.624Z,3.30
2023-04-03T18:27:48.618Z,2.85
2023-04-03T18:30:23.300Z,3.40
2023-04-03T18:32:56.189Z,3.15
2023-04-03T18:35:29.926Z,4.03
2023-04-03T18:38:02.635Z,4.05
2023-04-03T18:40:36.404Z,7.00
2023-04-03T18:43:09.237Z,5.88
2023-04-03T18:45:47.150Z,5.40
2023-04-03T18:48:20.687Z,5.97
2023-04-03T18:50:55.941Z,3.97
2023-04-03T18:53:28.679Z,5.78
2023-04-03T18:56:01.816Z,4.97
2023-04-03T18:58:34.517Z,8.00
2023-04-03T19:01:07.548Z,10.82
2023-04-03T19:03:40.340Z,9.05
2023-04-03T19:06:13.472Z,4.38
2023-04-03T19:08:46.213Z,3.85
2023-04-03T19:11:19.158Z,4.55
2023-04-03T19:14:10.537Z,5.25
2023-04-03T19:16:45.426Z,4.28
2023-04-03T19:19:18.167Z,2.55
2023-04-03T19:21:51.380Z,2.95
2023-04-03T19:24:24.153Z,3.97
2023-04-03T19:26:57.203Z,2.45
2023-04-03T19:29:29.841Z,2.35
2023-04-03T19:32:02.919Z,2.45
2023-04-03T19:34:35.541Z,2.67
2023-04-03T19:37:08.637Z,2.67
2023-04-03T19:39:41.343Z,3.22
2023-04-03T19:42:14.290Z,3.05
2023-04-03T19:44:48.604Z,3.42
2023-04-03T19:47:22.744Z,5.15
2023-04-03T19:49:55.408Z,4.53
2023-04-03T19:52:28.463Z,3.83
2023-04-03T19:55:01.481Z,3.88
2023-04-03T19:57:34.508Z,4.53
2023-04-03T20:00:07.621Z,5.50
2023-04-03T20:02:44.639Z,5.47
2023-04-03T20:05:17.525Z,6.65
2023-04-03T20:07:50.981Z,5.78
2023-04-03T20:10:23.915Z,6.15
2023-04-03T20:12:56.871Z,5.55
2023-04-03T20:15:30.093Z,6.60
2023-04-03T20:18:03.804Z,4.55
2023-04-03T20:20:42.374Z,5.75
2023-04-03T20:23:15.831Z,4.90
2023-04-03T20:26:01.469Z,5.07
2023-04-03T20:28:42.043Z,6.10
2023-04-03T20:31:15.690Z,5.20
2023-04-03T20:33:49.183Z,4.43
2023-04-03T20:36:22.249Z,5.50
2023-04-03T20:38:55.364Z,4.50
2023-04-03T20:41:28.074Z,5.95
2023-04-03T20:44:01.305Z,3.22
2023-04-03T20:46:49.180Z,2.40
2023-04-03T20:49:25.366Z,3.50
2023-04-03T20:51:58.099Z,4.15
2023-04-03T20:54:31.060Z,3.88
2023-04-03T20:57:03.707Z,3.42
2023-04-03T20:59:37.322Z,4.03
2023-04-03T21:02:11.677Z,3.70
2023-04-03T21:04:48.069Z,4.78
2023-04-03T21:07:40.568Z,4.82
2023-04-03T21:10:32.862Z,2.88
2023-04-03T21:15:47.917Z,3.30
2023-04-03T21:18:41.454Z,3.05
2023-04-03T21:21:18.445Z,2.35
2023-04-03T21:23:52.296Z,3.08
2023-04-03T21:26:26.439Z,2.75
2023-04-03T21:28:59.140Z,2.38
2023-04-03T21:31:47.486Z,2.28
2023-04-03T21:34:21.598Z,1.90
2023-04-03T21:36:57.774Z,2.90
2023-04-03T21:39:30.660Z,3.10
2023-04-03T21:42:03.764Z,2.92
2023-04-03T21:44:36.359Z,3.95
2023-04-03T21:47:09.329Z,2.30
2023-04-03T21:49:42.170Z,2.05
2023-04-03T21:52:16.162Z,3.13
2023-04-03T21:54:48.844Z,2.83
2023-04-03T21:57:22.382Z,2.42
2023-04-03T21:59:55.166Z,3.97
2023-04-03T22:02:28.301Z,2.63
2023-04-03T22:05:01.013Z,3.22
2023-04-03T22:07:34.109Z,2.40
2023-04-03T22:10:06.903Z,4.30
2023-04-03T22:24:57.572Z,3.80
2023-04-03T22:27:31.059Z,3.20
2023-04-03T22:30:03.965Z,2.65
2023-04-03T22:32:38.394Z,2.92
2023-04-03T22:35:11.043Z,3.33
2023-04-03T22:37:43.993Z,3.00
2023-04-03T22:40:17.151Z,3.55
2023-04-03T22:42:50.106Z,2.33
2023-04-03T22:45:22.740Z,2.53
2023-04-03T22:47:59.074Z,3.22
2023-04-03T22:50:32.301Z,2.00
2023-04-03T22:53:05.620Z,2.08
2023-04-03T22:55:38.639Z,2.08
2023-04-03T22:58:12.063Z,1.48
2023-04-03T23:00:44.693Z,2.35
2023-04-03T23:03:17.800Z,2.17
2023-04-03T23:05:53.491Z,2.63
2023-04-03T23:08:26.897Z,2.90
2023-04-03T23:11:00.021Z,2.67
2023-04-03T23:13:33.013Z,3.30
2023-04-03T23:16:05.913Z,2.17
2023-04-03T23:18:40.278Z,1.80
2023-04-03T23:21:13.403Z,2.53
2023-04-03T23:23:46.460Z,1.88
2023-04-03T23:26:19.325Z,2.13
2023-04-03T23:28:52.382Z,2.13
2023-04-03T23:31:27.028Z,3.15
2023-04-03T23:34:00.051Z,2.47
2023-04-03T23:36:32.772Z,2.20
2023-04-03T23:39:05.961Z,2.22
2023-04-03T23:41:39.817Z,2.63
2023-04-03T23:44:18.028Z,2.80
2023-04-03T23:46:51.304Z,2.67
2023-04-03T23:49:24.447Z,3.92
2023-04-03T23:51:57.997Z,3.00
2023-04-03T23:54:31.921Z,3.28
2023-04-03T23:57:04.586Z,2.88
2023-04-03T23:59:37.548Z,3.03
